sensor_id;sensor_type;location;lat;lon;timestamp;temperature;humidity
47779;DHT22;33538;48.432;11.350;2023-07-20T00:00:30;23.60;73.40
47779;DHT22;33538;48.432;11.350;2023-07-20T00:03:10;23.60;72.90
47779;DHT22;33538;48.432;11.350;2023-07-20T00:05:39;23.50;72.50
47779;DHT22;33538;48.432;11.350;2023-07-20T00:08:05;23.50;72.30
47779;DHT22;33538;48.432;11.350;2023-07-20T00:10:32;23.50;72.00
47779;DHT22;33538;48.432;11.350;2023-07-20T00:12:59;23.50;72.60
47779;DHT22;33538;48.432;11.350;2023-07-20T00:15:26;23.50;72.90
47779;DHT22;33538;48.432;11.350;2023-07-20T00:17:53;23.50;72.50
47779;DHT22;33538;48.432;11.350;2023-07-20T00:20:22;23.60;72.40
47779;DHT22;33538;48.432;11.350;2023-07-20T00:22:50;23.50;73.00
47779;DHT22;33538;48.432;11.350;2023-07-20T00:25:17;23.50;74.20
47779;DHT22;33538;48.432;11.350;2023-07-20T00:27:44;23.50;72.90
47779;DHT22;33538;48.432;11.350;2023-07-20T00:30:12;23.50;73.00
47779;DHT22;33538;48.432;11.350;2023-07-20T00:32:39;23.50;73.10
47779;DHT22;33538;48.432;11.350;2023-07-20T00:35:06;23.50;73.20
47779;DHT22;33538;48.432;11.350;2023-07-20T00:37:33;23.40;73.20
47779;DHT22;33538;48.432;11.350;2023-07-20T00:40:01;23.40;72.60
47779;DHT22;33538;48.432;11.350;2023-07-20T00:42:28;23.40;72.70
47779;DHT22;33538;48.432;11.350;2023-07-20T00:44:55;23.40;72.80
47779;DHT22;33538;48.432;11.350;2023-07-20T00:47:21;23.40;72.30
47779;DHT22;33538;48.432;11.350;2023-07-20T00:49:48;23.40;72.70
47779;DHT22;33538;48.432;11.350;2023-07-20T00:52:16;23.40;72.50
47779;DHT22;33538;48.432;11.350;2023-07-20T00:54:44;23.30;72.10
47779;DHT22;33538;48.432;11.350;2023-07-20T00:57:14;23.40;72.10
47779;DHT22;33538;48.432;11.350;2023-07-20T00:59:41;23.30;72.40
47779;DHT22;33538;48.432;11.350;2023-07-20T01:02:08;23.30;72.20
47779;DHT22;33538;48.432;11.350;2023-07-20T01:04:35;23.30;72.60
47779;DHT22;33538;48.432;11.350;2023-07-20T01:07:08;23.30;72.70
47779;DHT22;33538;48.432;11.350;2023-07-20T01:09:41;23.30;72.40
47779;DHT22;33538;48.432;11.350;2023-07-20T01:12:14;23.20;72.10
47779;DHT22;33538;48.432;11.350;2023-07-20T01:14:45;23.20;71.60
47779;DHT22;33538;48.432;11.350;2023-07-20T01:17:12;23.20;71.70
47779;DHT22;33538;48.432;11.350;2023-07-20T01:19:39;23.20;71.80
47779;DHT22;33538;48.432;11.350;2023-07-20T01:22:17;23.20;72.00
47779;DHT22;33538;48.432;11.350;2023-07-20T01:25:07;23.20;72.00
47779;DHT22;33538;48.432;11.350;2023-07-20T01:28:24;23.20;71.80
47779;DHT22;33538;48.432;11.350;2023-07-20T01:33:33;23.20;71.90
47779;DHT22;33538;48.432;11.350;2023-07-20T01:36:02;23.20;71.90
47779;DHT22;33538;48.432;11.350;2023-07-20T01:38:29;23.20;72.10
47779;DHT22;33538;48.432;11.350;2023-07-20T01:40:57;23.20;71.90
47779;DHT22;33538;48.432;11.350;2023-07-20T01:43:25;23.20;71.60
47779;DHT22;33538;48.432;11.350;2023-07-20T01:45:52;23.20;71.70
47779;DHT22;33538;48.432;11.350;2023-07-20T01:48:18;23.10;71.20
47779;DHT22;33538;48.432;11.350;2023-07-20T01:50:47;23.10;70.90
47779;DHT22;33538;48.432;11.350;2023-07-20T01:53:14;23.10;71.10
47779;DHT22;33538;48.432;11.350;2023-07-20T01:55:40;23.00;70.90
47779;DHT22;33538;48.432;11.350;2023-07-20T01:58:07;23.10;71.20
47779;DHT22;33538;48.432;11.350;2023-07-20T02:00:36;23.10;70.80
47779;DHT22;33538;48.432;11.350;2023-07-20T02:03:03;23.00;70.40
47779;DHT22;33538;48.432;11.350;2023-07-20T02:05:30;23.10;70.00
47779;DHT22;33538;48.432;11.350;2023-07-20T02:07:58;23.00;70.30
47779;DHT22;33538;48.432;11.350;2023-07-20T02:10:25;23.00;70.30
47779;DHT22;33538;48.432;11.350;2023-07-20T02:12:52;22.90;70.10
47779;DHT22;33538;48.432;11.350;2023-07-20T02:15:19;22.90;70.60
47779;DHT22;33538;48.432;11.350;2023-07-20T02:17:45;22.90;70.10
47779;DHT22;33538;48.432;11.350;2023-07-20T02:20:12;23.00;70.20
47779;DHT22;33538;48.432;11.350;2023-07-20T02:22:40;23.00;70.40
47779;DHT22;33538;48.432;11.350;2023-07-20T02:25:08;22.90;70.70
47779;DHT22;33538;48.432;11.350;2023-07-20T02:27:37;22.90;71.20
47779;DHT22;33538;48.432;11.350;2023-07-20T02:30:05;22.90;71.20
47779;DHT22;33538;48.432;11.350;2023-07-20T02:32:33;22.90;71.30
47779;DHT22;33538;48.432;11.350;2023-07-20T02:35:00;22.90;71.30
47779;DHT22;33538;48.432;11.350;2023-07-20T02:37:26;22.90;71.10
47779;DHT22;33538;48.432;11.350;2023-07-20T02:39:53;22.90;70.70
47779;DHT22;33538;48.432;11.350;2023-07-20T02:42:21;22.90;70.80
47779;DHT22;33538;48.432;11.350;2023-07-20T02:44:48;22.80;71.20
47779;DHT22;33538;48.432;11.350;2023-07-20T02:47:15;22.80;71.50
47779;DHT22;33538;48.432;11.350;2023-07-20T02:49:42;22.80;70.90
47779;DHT22;33538;48.432;11.350;2023-07-20T02:52:09;22.80;70.80
47779;DHT22;33538;48.432;11.350;2023-07-20T02:54:36;22.70;70.50
47779;DHT22;33538;48.432;11.350;2023-07-20T02:57:03;22.70;70.10
47779;DHT22;33538;48.432;11.350;2023-07-20T02:59:31;22.70;70.20
47779;DHT22;33538;48.432;11.350;2023-07-20T03:01:58;22.70;70.30
47779;DHT22;33538;48.432;11.350;2023-07-20T03:04:26;22.70;70.50
47779;DHT22;33538;48.432;11.350;2023-07-20T03:06:52;22.60;70.80
47779;DHT22;33538;48.432;11.350;2023-07-20T03:09:19;22.60;70.60
47779;DHT22;33538;48.432;11.350;2023-07-20T03:11:46;22.60;70.70
47779;DHT22;33538;48.432;11.350;2023-07-20T03:14:13;22.60;70.80
47779;DHT22;33538;48.432;11.350;2023-07-20T03:16:41;22.60;70.30
47779;DHT22;33538;48.432;11.350;2023-07-20T03:19:08;22.60;70.10
47779;DHT22;33538;48.432;11.350;2023-07-20T03:21:35;22.50;70.10
47779;DHT22;33538;48.432;11.350;2023-07-20T03:24:02;22.50;69.90
47779;DHT22;33538;48.432;11.350;2023-07-20T03:26:29;22.50;70.50
47779;DHT22;33538;48.432;11.350;2023-07-20T03:28:55;22.50;69.30
47779;DHT22;33538;48.432;11.350;2023-07-20T03:31:22;22.50;69.00
47779;DHT22;33538;48.432;11.350;2023-07-20T03:33:52;22.50;68.70
47779;DHT22;33538;48.432;11.350;2023-07-20T03:36:19;22.50;68.70
47779;DHT22;33538;48.432;11.350;2023-07-20T03:38:46;22.50;68.50
47779;DHT22;33538;48.432;11.350;2023-07-20T03:41:13;22.50;68.40
47779;DHT22;33538;48.432;11.350;2023-07-20T03:43:40;22.40;68.30
47779;DHT22;33538;48.432;11.350;2023-07-20T03:46:07;22.40;68.50
47779;DHT22;33538;48.432;11.350;2023-07-20T03:48:34;22.40;68.10
47779;DHT22;33538;48.432;11.350;2023-07-20T03:51:02;22.40;68.10
47779;DHT22;33538;48.432;11.350;2023-07-20T03:53:29;22.40;68.20
47779;DHT22;33538;48.432;11.350;2023-07-20T03:55:56;22.40;68.20
47779;DHT22;33538;48.432;11.350;2023-07-20T03:58:23;22.40;68.00
47779;DHT22;33538;48.432;11.350;2023-07-20T04:00:51;22.30;68.00
47779;DHT22;33538;48.432;11.350;2023-07-20T04:03:19;22.30;67.80
47779;DHT22;33538;48.432;11.350;2023-07-20T04:05:46;22.30;67.70
47779;DHT22;33538;48.432;11.350;2023-07-20T04:08:15;22.30;67.70
47779;DHT22;33538;48.432;11.350;2023-07-20T04:10:43;22.30;67.70
47779;DHT22;33538;48.432;11.350;2023-07-20T04:13:10;22.30;67.60
47779;DHT22;33538;48.432;11.350;2023-07-20T04:15:37;22.30;67.70
47779;DHT22;33538;48.432;11.350;2023-07-20T04:18:04;22.30;68.00
47779;DHT22;33538;48.432;11.350;2023-07-20T04:20:31;22.30;67.90
47779;DHT22;33538;48.432;11.350;2023-07-20T04:22:58;22.20;67.80
47779;DHT22;33538;48.432;11.350;2023-07-20T04:25:26;22.20;67.60
47779;DHT22;33538;48.432;11.350;2023-07-20T04:27:53;22.20;67.60
47779;DHT22;33538;48.432;11.350;2023-07-20T04:30:20;22.20;67.60
47779;DHT22;33538;48.432;11.350;2023-07-20T04:32:47;22.20;67.40
47779;DHT22;33538;48.432;11.350;2023-07-20T04:35:18;22.20;67.20
47779;DHT22;33538;48.432;11.350;2023-07-20T04:37:45;22.20;67.30
47779;DHT22;33538;48.432;11.350;2023-07-20T04:40:12;22.20;67.40
47779;DHT22;33538;48.432;11.350;2023-07-20T04:42:40;22.20;67.40
47779;DHT22;33538;48.432;11.350;2023-07-20T04:45:08;22.20;67.60
47779;DHT22;33538;48.432;11.350;2023-07-20T04:47:35;22.10;67.00
47779;DHT22;33538;48.432;11.350;2023-07-20T04:50:02;22.20;67.00
47779;DHT22;33538;48.432;11.350;2023-07-20T04:52:29;22.10;67.10
47779;DHT22;33538;48.432;11.350;2023-07-20T04:55:08;22.20;67.30
47779;DHT22;33538;48.432;11.350;2023-07-20T04:57:35;22.10;67.30
47779;DHT22;33538;48.432;11.350;2023-07-20T05:00:04;22.10;67.20
47779;DHT22;33538;48.432;11.350;2023-07-20T05:02:31;22.10;67.30
47779;DHT22;33538;48.432;11.350;2023-07-20T05:04:58;22.10;67.30
47779;DHT22;33538;48.432;11.350;2023-07-20T05:07:25;22.10;67.50
47779;DHT22;33538;48.432;11.350;2023-07-20T05:09:52;22.10;67.30
47779;DHT22;33538;48.432;11.350;2023-07-20T05:12:18;22.10;67.10
47779;DHT22;33538;48.432;11.350;2023-07-20T05:14:46;22.10;67.30
47779;DHT22;33538;48.432;11.350;2023-07-20T05:17:14;22.10;67.30
47779;DHT22;33538;48.432;11.350;2023-07-20T05:19:41;22.10;67.10
47779;DHT22;33538;48.432;11.350;2023-07-20T05:22:11;22.10;67.10
47779;DHT22;33538;48.432;11.350;2023-07-20T05:24:38;22.10;67.40
47779;DHT22;33538;48.432;11.350;2023-07-20T05:27:05;22.10;67.80
47779;DHT22;33538;48.432;11.350;2023-07-20T05:29:32;22.10;67.70
47779;DHT22;33538;48.432;11.350;2023-07-20T05:31:59;22.10;67.40
47779;DHT22;33538;48.432;11.350;2023-07-20T05:34:27;22.10;67.00
47779;DHT22;33538;48.432;11.350;2023-07-20T05:36:55;22.10;67.00
47779;DHT22;33538;48.432;11.350;2023-07-20T05:39:22;22.10;67.10
47779;DHT22;33538;48.432;11.350;2023-07-20T05:41:48;22.10;67.00
47779;DHT22;33538;48.432;11.350;2023-07-20T05:44:15;22.10;67.10
47779;DHT22;33538;48.432;11.350;2023-07-20T05:46:42;22.10;67.40
47779;DHT22;33538;48.432;11.350;2023-07-20T05:49:23;22.10;67.60
47779;DHT22;33538;48.432;11.350;2023-07-20T05:51:51;22.10;67.50
47779;DHT22;33538;48.432;11.350;2023-07-20T05:54:18;22.10;67.60
47779;DHT22;33538;48.432;11.350;2023-07-20T05:56:45;22.20;67.60
47779;DHT22;33538;48.432;11.350;2023-07-20T05:59:12;22.20;67.20
47779;DHT22;33538;48.432;11.350;2023-07-20T06:01:39;22.20;67.20
47779;DHT22;33538;48.432;11.350;2023-07-20T06:04:06;22.10;67.40
47779;DHT22;33538;48.432;11.350;2023-07-20T06:06:33;22.20;67.60
47779;DHT22;33538;48.432;11.350;2023-07-20T06:09:01;22.20;67.40
47779;DHT22;33538;48.432;11.350;2023-07-20T06:11:28;22.20;67.20
47779;DHT22;33538;48.432;11.350;2023-07-20T06:13:55;22.20;67.10
47779;DHT22;33538;48.432;11.350;2023-07-20T06:16:22;22.20;67.10
47779;DHT22;33538;48.432;11.350;2023-07-20T06:18:49;22.20;67.00
47779;DHT22;33538;48.432;11.350;2023-07-20T06:21:16;22.20;67.00
47779;DHT22;33538;48.432;11.350;2023-07-20T06:23:43;22.20;67.10
47779;DHT22;33538;48.432;11.350;2023-07-20T06:26:11;22.20;67.10
47779;DHT22;33538;48.432;11.350;2023-07-20T06:28:38;22.30;67.20
47779;DHT22;33538;48.432;11.350;2023-07-20T06:31:05;22.20;67.20
47779;DHT22;33538;48.432;11.350;2023-07-20T06:33:32;22.30;67.20
47779;DHT22;33538;48.432;11.350;2023-07-20T06:35:58;22.20;67.10
47779;DHT22;33538;48.432;11.350;2023-07-20T06:38:25;22.30;67.20
47779;DHT22;33538;48.432;11.350;2023-07-20T06:40:55;22.30;67.20
47779;DHT22;33538;48.432;11.350;2023-07-20T06:43:23;22.30;67.30
47779;DHT22;33538;48.432;11.350;2023-07-20T06:45:53;22.30;67.20
47779;DHT22;33538;48.432;11.350;2023-07-20T06:48:21;22.30;66.60
47779;DHT22;33538;48.432;11.350;2023-07-20T06:50:48;22.30;66.30
47779;DHT22;33538;48.432;11.350;2023-07-20T06:53:15;22.40;66.30
47779;DHT22;33538;48.432;11.350;2023-07-20T06:55:42;22.30;66.50
47779;DHT22;33538;48.432;11.350;2023-07-20T06:58:09;22.30;66.70
47779;DHT22;33538;48.432;11.350;2023-07-20T07:00:37;22.30;67.00
47779;DHT22;33538;48.432;11.350;2023-07-20T07:03:04;22.40;67.00
47779;DHT22;33538;48.432;11.350;2023-07-20T07:05:31;22.40;66.80
47779;DHT22;33538;48.432;11.350;2023-07-20T07:08:03;22.40;66.70
47779;DHT22;33538;48.432;11.350;2023-07-20T07:10:30;22.40;66.50
47779;DHT22;33538;48.432;11.350;2023-07-20T07:12:57;22.40;66.50
47779;DHT22;33538;48.432;11.350;2023-07-20T07:15:23;22.40;66.60
47779;DHT22;33538;48.432;11.350;2023-07-20T07:17:51;22.40;66.70
47779;DHT22;33538;48.432;11.350;2023-07-20T07:20:18;22.50;66.50
47779;DHT22;33538;48.432;11.350;2023-07-20T07:22:47;22.50;66.20
47779;DHT22;33538;48.432;11.350;2023-07-20T07:25:19;22.50;66.10
47779;DHT22;33538;48.432;11.350;2023-07-20T07:27:49;22.50;66.10
47779;DHT22;33538;48.432;11.350;2023-07-20T07:30:17;22.50;66.20
47779;DHT22;33538;48.432;11.350;2023-07-20T07:32:44;22.50;66.00
47779;DHT22;33538;48.432;11.350;2023-07-20T07:35:12;22.50;65.70
47779;DHT22;33538;48.432;11.350;2023-07-20T07:37:39;22.60;65.80
47779;DHT22;33538;48.432;11.350;2023-07-20T07:40:25;22.60;65.60
47779;DHT22;33538;48.432;11.350;2023-07-20T07:42:52;22.60;65.50
47779;DHT22;33538;48.432;11.350;2023-07-20T07:45:21;22.60;65.30
47779;DHT22;33538;48.432;11.350;2023-07-20T07:47:48;22.70;65.00
47779;DHT22;33538;48.432;11.350;2023-07-20T07:50:16;22.70;64.80
47779;DHT22;33538;48.432;11.350;2023-07-20T07:52:43;22.70;64.50
47779;DHT22;33538;48.432;11.350;2023-07-20T07:55:10;22.70;64.40
47779;DHT22;33538;48.432;11.350;2023-07-20T07:57:36;22.70;64.30
47779;DHT22;33538;48.432;11.350;2023-07-20T08:00:04;22.70;64.30
47779;DHT22;33538;48.432;11.350;2023-07-20T08:02:33;22.70;64.20
47779;DHT22;33538;48.432;11.350;2023-07-20T08:05:00;22.80;64.20
47779;DHT22;33538;48.432;11.350;2023-07-20T08:07:28;22.80;64.00
47779;DHT22;33538;48.432;11.350;2023-07-20T08:09:55;22.80;63.80
47779;DHT22;33538;48.432;11.350;2023-07-20T08:12:22;22.80;63.80
47779;DHT22;33538;48.432;11.350;2023-07-20T08:14:49;22.80;63.80
47779;DHT22;33538;48.432;11.350;2023-07-20T08:17:16;22.80;63.60
47779;DHT22;33538;48.432;11.350;2023-07-20T08:19:43;22.80;63.40
47779;DHT22;33538;48.432;11.350;2023-07-20T08:22:10;22.80;63.30
47779;DHT22;33538;48.432;11.350;2023-07-20T08:24:40;22.80;63.30
47779;DHT22;33538;48.432;11.350;2023-07-20T08:27:07;22.80;63.30
47779;DHT22;33538;48.432;11.350;2023-07-20T08:29:35;22.90;63.30
47779;DHT22;33538;48.432;11.350;2023-07-20T08:32:02;22.90;63.30
47779;DHT22;33538;48.432;11.350;2023-07-20T08:34:29;22.90;63.20
47779;DHT22;33538;48.432;11.350;2023-07-20T08:36:59;22.90;63.10
47779;DHT22;33538;48.432;11.350;2023-07-20T08:39:26;22.90;63.00
47779;DHT22;33538;48.432;11.350;2023-07-20T08:41:55;22.90;62.80
47779;DHT22;33538;48.432;11.350;2023-07-20T08:44:22;22.90;62.70
47779;DHT22;33538;48.432;11.350;2023-07-20T08:46:49;23.00;62.60
47779;DHT22;33538;48.432;11.350;2023-07-20T08:49:16;23.00;62.50
47779;DHT22;33538;48.432;11.350;2023-07-20T08:51:46;23.00;62.60
47779;DHT22;33538;48.432;11.350;2023-07-20T08:54:13;23.00;62.50
47779;DHT22;33538;48.432;11.350;2023-07-20T08:56:41;23.00;62.40
47779;DHT22;33538;48.432;11.350;2023-07-20T08:59:11;23.00;62.60
47779;DHT22;33538;48.432;11.350;2023-07-20T09:01:39;23.00;62.60
47779;DHT22;33538;48.432;11.350;2023-07-20T09:04:07;23.10;62.70
47779;DHT22;33538;48.432;11.350;2023-07-20T09:06:35;23.10;62.80
47779;DHT22;33538;48.432;11.350;2023-07-20T09:09:02;23.10;62.80
47779;DHT22;33538;48.432;11.350;2023-07-20T09:11:29;23.10;62.90
47779;DHT22;33538;48.432;11.350;2023-07-20T09:14:03;23.20;62.90
47779;DHT22;33538;48.432;11.350;2023-07-20T09:16:32;23.20;62.90
47779;DHT22;33538;48.432;11.350;2023-07-20T09:18:59;23.20;62.90
47779;DHT22;33538;48.432;11.350;2023-07-20T09:21:29;23.20;62.90
47779;DHT22;33538;48.432;11.350;2023-07-20T09:23:56;23.20;63.00
47779;DHT22;33538;48.432;11.350;2023-07-20T09:26:23;23.20;63.00
47779;DHT22;33538;48.432;11.350;2023-07-20T09:28:52;23.30;63.10
47779;DHT22;33538;48.432;11.350;2023-07-20T09:31:21;23.30;63.10
47779;DHT22;33538;48.432;11.350;2023-07-20T09:33:52;23.30;63.20
47779;DHT22;33538;48.432;11.350;2023-07-20T09:36:22;23.40;63.30
47779;DHT22;33538;48.432;11.350;2023-07-20T09:39:09;23.40;63.30
47779;DHT22;33538;48.432;11.350;2023-07-20T09:41:42;23.40;63.30
47779;DHT22;33538;48.432;11.350;2023-07-20T09:44:14;23.40;63.40
47779;DHT22;33538;48.432;11.350;2023-07-20T09:46:45;23.40;63.50
47779;DHT22;33538;48.432;11.350;2023-07-20T09:49:17;23.50;63.50
47779;DHT22;33538;48.432;11.350;2023-07-20T09:51:47;23.40;63.50
47779;DHT22;33538;48.432;11.350;2023-07-20T09:54:15;23.50;63.60
47779;DHT22;33538;48.432;11.350;2023-07-20T09:56:43;23.50;63.70
47779;DHT22;33538;48.432;11.350;2023-07-20T09:59:10;23.50;63.60
47779;DHT22;33538;48.432;11.350;2023-07-20T10:01:40;23.50;63.60
47779;DHT22;33538;48.432;11.350;2023-07-20T10:04:09;23.60;63.70
47779;DHT22;33538;48.432;11.350;2023-07-20T10:06:42;23.60;63.70
47779;DHT22;33538;48.432;11.350;2023-07-20T10:09:10;23.60;63.80
47779;DHT22;33538;48.432;11.350;2023-07-20T10:11:43;23.50;63.50
47779;DHT22;33538;48.432;11.350;2023-07-20T10:14:12;23.60;63.50
47779;DHT22;33538;48.432;11.350;2023-07-20T10:16:44;23.50;63.50
47779;DHT22;33538;48.432;11.350;2023-07-20T10:19:22;23.50;63.60
47779;DHT22;33538;48.432;11.350;2023-07-20T10:21:56;23.60;63.60
47779;DHT22;33538;48.432;11.350;2023-07-20T10:24:25;23.60;63.40
47779;DHT22;33538;48.432;11.350;2023-07-20T10:26:54;23.60;63.40
47779;DHT22;33538;48.432;11.350;2023-07-20T10:29:22;23.50;63.20
47779;DHT22;33538;48.432;11.350;2023-07-20T10:31:49;23.50;63.10
47779;DHT22;33538;48.432;11.350;2023-07-20T10:34:18;23.60;63.00
47779;DHT22;33538;48.432;11.350;2023-07-20T10:36:46;23.60;63.00
47779;DHT22;33538;48.432;11.350;2023-07-20T10:39:23;23.60;63.00
47779;DHT22;33538;48.432;11.350;2023-07-20T10:41:59;23.60;63.10
47779;DHT22;33538;48.432;11.350;2023-07-20T10:44:26;23.50;62.90
47779;DHT22;33538;48.432;11.350;2023-07-20T10:46:59;23.60;63.10
47779;DHT22;33538;48.432;11.350;2023-07-20T10:49:27;23.60;63.00
47779;DHT22;33538;48.432;11.350;2023-07-20T10:51:58;23.60;63.10
47779;DHT22;33538;48.432;11.350;2023-07-20T10:54:47;23.60;63.10
47779;DHT22;33538;48.432;11.350;2023-07-20T10:57:27;23.60;62.90
47779;DHT22;33538;48.432;11.350;2023-07-20T11:00:10;23.60;62.70
47779;DHT22;33538;48.432;11.350;2023-07-20T11:02:47;23.60;62.50
47779;DHT22;33538;48.432;11.350;2023-07-20T11:05:33;23.60;62.60
47779;DHT22;33538;48.432;11.350;2023-07-20T11:08:02;23.50;62.60
47779;DHT22;33538;48.432;11.350;2023-07-20T11:10:33;23.60;62.50
47779;DHT22;33538;48.432;11.350;2023-07-20T11:13:19;23.60;62.20
47779;DHT22;33538;48.432;11.350;2023-07-20T11:15:47;23.60;62.50
47779;DHT22;33538;48.432;11.350;2023-07-20T11:18:14;23.60;62.50
47779;DHT22;33538;48.432;11.350;2023-07-20T11:20:41;23.60;62.60
47779;DHT22;33538;48.432;11.350;2023-07-20T11:23:09;23.60;62.70
47779;DHT22;33538;48.432;11.350;2023-07-20T11:25:38;23.60;62.80
47779;DHT22;33538;48.432;11.350;2023-07-20T11:28:08;23.60;62.80
47779;DHT22;33538;48.432;11.350;2023-07-20T11:30:36;23.60;62.90
47779;DHT22;33538;48.432;11.350;2023-07-20T11:33:03;23.70;63.00
47779;DHT22;33538;48.432;11.350;2023-07-20T11:35:30;23.70;63.10
47779;DHT22;33538;48.432;11.350;2023-07-20T11:37:57;23.70;63.10
47779;DHT22;33538;48.432;11.350;2023-07-20T11:40:24;23.70;63.20
47779;DHT22;33538;48.432;11.350;2023-07-20T11:42:54;23.80;63.30
47779;DHT22;33538;48.432;11.350;2023-07-20T11:45:25;23.80;63.00
47779;DHT22;33538;48.432;11.350;2023-07-20T11:47:52;23.80;63.20
47779;DHT22;33538;48.432;11.350;2023-07-20T11:50:19;23.90;63.30
47779;DHT22;33538;48.432;11.350;2023-07-20T11:52:46;23.90;63.30
47779;DHT22;33538;48.432;11.350;2023-07-20T11:55:13;23.90;63.50
47779;DHT22;33538;48.432;11.350;2023-07-20T11:57:40;23.90;63.50
47779;DHT22;33538;48.432;11.350;2023-07-20T12:00:10;23.90;63.50
47779;DHT22;33538;48.432;11.350;2023-07-20T12:02:37;23.90;63.70
47779;DHT22;33538;48.432;11.350;2023-07-20T12:05:05;23.90;63.70
47779;DHT22;33538;48.432;11.350;2023-07-20T12:07:36;24.00;63.80
47779;DHT22;33538;48.432;11.350;2023-07-20T12:10:04;24.00;63.90
47779;DHT22;33538;48.432;11.350;2023-07-20T12:12:31;24.00;63.90
47779;DHT22;33538;48.432;11.350;2023-07-20T12:15:14;24.00;64.00
47779;DHT22;33538;48.432;11.350;2023-07-20T12:17:42;24.00;64.00
47779;DHT22;33538;48.432;11.350;2023-07-20T12:20:11;24.00;64.00
47779;DHT22;33538;48.432;11.350;2023-07-20T12:22:39;24.00;64.10
47779;DHT22;33538;48.432;11.350;2023-07-20T12:25:06;24.00;64.00
47779;DHT22;33538;48.432;11.350;2023-07-20T12:27:33;24.10;64.10
47779;DHT22;33538;48.432;11.350;2023-07-20T12:30:01;24.10;64.10
47779;DHT22;33538;48.432;11.350;2023-07-20T12:32:30;24.10;64.20
47779;DHT22;33538;48.432;11.350;2023-07-20T12:34:56;24.10;64.20
47779;DHT22;33538;48.432;11.350;2023-07-20T12:37:23;24.10;64.00
47779;DHT22;33538;48.432;11.350;2023-07-20T12:39:50;24.10;64.10
47779;DHT22;33538;48.432;11.350;2023-07-20T12:42:17;24.10;64.10
47779;DHT22;33538;48.432;11.350;2023-07-20T12:44:44;24.10;64.20
47779;DHT22;33538;48.432;11.350;2023-07-20T12:47:10;24.10;64.20
47779;DHT22;33538;48.432;11.350;2023-07-20T12:49:39;24.10;64.20
47779;DHT22;33538;48.432;11.350;2023-07-20T12:52:07;24.20;63.90
47779;DHT22;33538;48.432;11.350;2023-07-20T12:54:34;24.20;64.00
47779;DHT22;33538;48.432;11.350;2023-07-20T12:57:00;24.20;64.10
47779;DHT22;33538;48.432;11.350;2023-07-20T12:59:30;24.20;64.10
47779;DHT22;33538;48.432;11.350;2023-07-20T13:01:57;24.20;64.20
47779;DHT22;33538;48.432;11.350;2023-07-20T13:04:24;24.20;64.20
47779;DHT22;33538;48.432;11.350;2023-07-20T13:06:53;24.20;64.10
47779;DHT22;33538;48.432;11.350;2023-07-20T13:09:20;24.20;64.10
47779;DHT22;33538;48.432;11.350;2023-07-20T13:11:47;24.20;64.00
47779;DHT22;33538;48.432;11.350;2023-07-20T13:14:14;24.20;64.00
47779;DHT22;33538;48.432;11.350;2023-07-20T13:16:41;24.20;64.10
47779;DHT22;33538;48.432;11.350;2023-07-20T13:19:07;24.20;64.00
47779;DHT22;33538;48.432;11.350;2023-07-20T13:21:34;24.20;64.00
47779;DHT22;33538;48.432;11.350;2023-07-20T13:24:02;24.30;64.00
47779;DHT22;33538;48.432;11.350;2023-07-20T13:26:29;24.30;64.10
47779;DHT22;33538;48.432;11.350;2023-07-20T13:28:56;24.30;64.10
47779;DHT22;33538;48.432;11.350;2023-07-20T13:31:23;24.30;64.10
47779;DHT22;33538;48.432;11.350;2023-07-20T13:33:50;24.30;64.30
47779;DHT22;33538;48.432;11.350;2023-07-20T13:36:20;24.30;64.20
47779;DHT22;33538;48.432;11.350;2023-07-20T13:38:48;24.30;64.10
47779;DHT22;33538;48.432;11.350;2023-07-20T13:41:17;24.30;64.20
47779;DHT22;33538;48.432;11.350;2023-07-20T13:43:45;24.30;64.10
47779;DHT22;33538;48.432;11.350;2023-07-20T13:46:12;24.40;63.80
47779;DHT22;33538;48.432;11.350;2023-07-20T13:48:42;24.40;63.20
47779;DHT22;33538;48.432;11.350;2023-07-20T13:51:09;24.40;63.50
47779;DHT22;33538;48.432;11.350;2023-07-20T13:53:36;24.40;62.80
47779;DHT22;33538;48.432;11.350;2023-07-20T13:56:06;24.40;63.20
47779;DHT22;33538;48.432;11.350;2023-07-20T13:58:37;24.40;63.40
47779;DHT22;33538;48.432;11.350;2023-07-20T14:01:06;24.40;63.50
47779;DHT22;33538;48.432;11.350;2023-07-20T14:03:33;24.40;63.50
47779;DHT22;33538;48.432;11.350;2023-07-20T14:06:00;24.40;63.70
47779;DHT22;33538;48.432;11.350;2023-07-20T14:08:30;24.40;63.60
47779;DHT22;33538;48.432;11.350;2023-07-20T14:10:57;24.40;63.60
47779;DHT22;33538;48.432;11.350;2023-07-20T14:13:27;24.40;63.60
47779;DHT22;33538;48.432;11.350;2023-07-20T14:16:12;24.50;63.70
47779;DHT22;33538;48.432;11.350;2023-07-20T14:18:39;24.50;63.70
47779;DHT22;33538;48.432;11.350;2023-07-20T14:21:07;24.50;63.60
47779;DHT22;33538;48.432;11.350;2023-07-20T14:23:35;24.50;63.60
47779;DHT22;33538;48.432;11.350;2023-07-20T14:26:02;24.50;63.00
47779;DHT22;33538;48.432;11.350;2023-07-20T14:28:29;24.50;63.10
47779;DHT22;33538;48.432;11.350;2023-07-20T14:30:56;24.50;63.10
47779;DHT22;33538;48.432;11.350;2023-07-20T14:33:24;24.50;64.00
47779;DHT22;33538;48.432;11.350;2023-07-20T14:35:51;24.50;63.00
47779;DHT22;33538;48.432;11.350;2023-07-20T14:38:18;24.50;63.00
47779;DHT22;33538;48.432;11.350;2023-07-20T14:40:45;24.60;62.90
47779;DHT22;33538;48.432;11.350;2023-07-20T14:43:12;24.60;62.90
47779;DHT22;33538;48.432;11.350;2023-07-20T14:45:39;24.60;62.70
47779;DHT22;33538;48.432;11.350;2023-07-20T14:48:06;24.60;62.70
47779;DHT22;33538;48.432;11.350;2023-07-20T14:50:35;24.60;62.60
47779;DHT22;33538;48.432;11.350;2023-07-20T14:53:02;24.70;62.60
47779;DHT22;33538;48.432;11.350;2023-07-20T14:55:32;24.70;62.50
47779;DHT22;33538;48.432;11.350;2023-07-20T14:57:59;24.70;62.40
47779;DHT22;33538;48.432;11.350;2023-07-20T15:00:26;24.70;62.30
47779;DHT22;33538;48.432;11.350;2023-07-20T15:02:53;24.70;62.30
47779;DHT22;33538;48.432;11.350;2023-07-20T15:05:21;24.80;62.20
47779;DHT22;33538;48.432;11.350;2023-07-20T15:07:49;24.80;62.20
47779;DHT22;33538;48.432;11.350;2023-07-20T15:10:16;24.80;62.10
47779;DHT22;33538;48.432;11.350;2023-07-20T15:12:43;24.80;62.10
47779;DHT22;33538;48.432;11.350;2023-07-20T15:15:11;24.80;62.00
47779;DHT22;33538;48.432;11.350;2023-07-20T15:17:39;24.80;61.80
47779;DHT22;33538;48.432;11.350;2023-07-20T15:20:09;24.90;61.80
47779;DHT22;33538;48.432;11.350;2023-07-20T15:22:36;24.90;61.60
47779;DHT22;33538;48.432;11.350;2023-07-20T15:25:05;24.90;61.50